Terminal Aerodrome Forecast
Issued by NWS

Home | Current Version | Previous Version | Text Only | Print | Product List | Glossary On
Versions: 1 2 3 4 5 6 7 8 9 10 11 12 13 14 15 16 17
000
FTUS45 KRIW 182126 AAB
TAFCPR
TAF AMD
KCPR 182126Z 1821/1918 VRB12G20KT P6SM VCSH SCT120 BKN150
      TEMPO 1821/1823 VRB25G35KT -SHRA BKN120
     FM190200 02008KT P6SM SCT120
     FM190400 09011KT P6SM FEW120
     FM191100 22006KT P6SM FEW120=

USA.gov is the U.S. government's official web portal to all federal, state and local government web resources and services.